sensor_id;sensor_type;location;lat;lon;timestamp;temperature;humidity
38973;DHT22;25333;50.762;4.470;2023-10-19T00:01:08;15.30;99.90
38973;DHT22;25333;50.762;4.470;2023-10-19T00:03:39;15.40;99.90
38973;DHT22;25333;50.762;4.470;2023-10-19T00:06:04;15.40;99.90
38973;DHT22;25333;50.762;4.470;2023-10-19T00:08:32;15.40;99.90
38973;DHT22;25333;50.762;4.470;2023-10-19T00:11:09;15.40;99.90
38973;DHT22;25333;50.762;4.470;2023-10-19T00:13:46;15.40;99.90
38973;DHT22;25333;50.762;4.470;2023-10-19T00:16:14;15.40;99.90
38973;DHT22;25333;50.762;4.470;2023-10-19T00:18:48;15.40;99.90
38973;DHT22;25333;50.762;4.470;2023-10-19T00:21:15;15.40;99.90
38973;DHT22;25333;50.762;4.470;2023-10-19T00:23:52;15.50;99.90
38973;DHT22;25333;50.762;4.470;2023-10-19T00:26:23;15.60;99.90
38973;DHT22;25333;50.762;4.470;2023-10-19T00:28:52;15.60;99.90
38973;DHT22;25333;50.762;4.470;2023-10-19T00:31:21;15.50;99.90
38973;DHT22;25333;50.762;4.470;2023-10-19T00:33:47;15.50;99.90
38973;DHT22;25333;50.762;4.470;2023-10-19T00:36:13;15.50;99.90
38973;DHT22;25333;50.762;4.470;2023-10-19T00:38:39;15.50;99.90
38973;DHT22;25333;50.762;4.470;2023-10-19T00:41:07;15.50;99.90
38973;DHT22;25333;50.762;4.470;2023-10-19T00:43:43;15.40;99.90
38973;DHT22;25333;50.762;4.470;2023-10-19T00:46:13;15.40;99.90
38973;DHT22;25333;50.762;4.470;2023-10-19T00:48:52;15.40;99.90
38973;DHT22;25333;50.762;4.470;2023-10-19T00:51:21;15.40;99.90
38973;DHT22;25333;50.762;4.470;2023-10-19T00:54:10;15.30;99.90
38973;DHT22;25333;50.762;4.470;2023-10-19T00:56:39;15.30;99.90
38973;DHT22;25333;50.762;4.470;2023-10-19T00:59:10;15.30;99.90
38973;DHT22;25333;50.762;4.470;2023-10-19T01:01:53;15.30;99.90
38973;DHT22;25333;50.762;4.470;2023-10-19T01:04:44;15.30;99.90
38973;DHT22;25333;50.762;4.470;2023-10-19T01:07:11;15.30;99.90
38973;DHT22;25333;50.762;4.470;2023-10-19T01:10:04;15.30;99.90
38973;DHT22;25333;50.762;4.470;2023-10-19T01:12:59;15.30;99.90
38973;DHT22;25333;50.762;4.470;2023-10-19T01:15:33;15.30;99.90
38973;DHT22;25333;50.762;4.470;2023-10-19T01:18:02;15.30;99.90
38973;DHT22;25333;50.762;4.470;2023-10-19T01:20:32;15.30;99.90
38973;DHT22;25333;50.762;4.470;2023-10-19T01:23:00;15.30;99.90
38973;DHT22;25333;50.762;4.470;2023-10-19T01:25:57;15.30;99.90
38973;DHT22;25333;50.762;4.470;2023-10-19T01:28:28;15.30;99.90
38973;DHT22;25333;50.762;4.470;2023-10-19T01:31:12;15.40;99.90
38973;DHT22;25333;50.762;4.470;2023-10-19T01:33:43;15.30;99.90
38973;DHT22;25333;50.762;4.470;2023-10-19T01:36:10;15.30;99.90
38973;DHT22;25333;50.762;4.470;2023-10-19T01:38:48;15.30;99.90
38973;DHT22;25333;50.762;4.470;2023-10-19T01:41:14;15.30;99.90
38973;DHT22;25333;50.762;4.470;2023-10-19T01:43:44;15.30;99.90
38973;DHT22;25333;50.762;4.470;2023-10-19T01:46:13;15.30;99.90
38973;DHT22;25333;50.762;4.470;2023-10-19T01:48:42;15.30;99.90
38973;DHT22;25333;50.762;4.470;2023-10-19T01:51:12;15.30;99.90
38973;DHT22;25333;50.762;4.470;2023-10-19T01:53:41;15.30;99.90
38973;DHT22;25333;50.762;4.470;2023-10-19T01:56:10;15.30;99.90
38973;DHT22;25333;50.762;4.470;2023-10-19T01:58:37;15.30;99.90
38973;DHT22;25333;50.762;4.470;2023-10-19T02:01:04;15.20;99.90
38973;DHT22;25333;50.762;4.470;2023-10-19T02:03:35;15.30;99.90
38973;DHT22;25333;50.762;4.470;2023-10-19T02:06:02;15.20;99.90
38973;DHT22;25333;50.762;4.470;2023-10-19T02:08:36;15.20;99.90
38973;DHT22;25333;50.762;4.470;2023-10-19T02:11:07;15.20;99.90
38973;DHT22;25333;50.762;4.470;2023-10-19T02:13:45;15.30;99.90
38973;DHT22;25333;50.762;4.470;2023-10-19T02:16:16;15.30;99.90
38973;DHT22;25333;50.762;4.470;2023-10-19T02:18:42;15.40;99.90
38973;DHT22;25333;50.762;4.470;2023-10-19T02:21:09;15.40;99.90
38973;DHT22;25333;50.762;4.470;2023-10-19T02:23:38;15.30;99.90
38973;DHT22;25333;50.762;4.470;2023-10-19T02:26:05;15.20;99.90
38973;DHT22;25333;50.762;4.470;2023-10-19T02:28:31;15.10;99.90
38973;DHT22;25333;50.762;4.470;2023-10-19T02:31:02;15.10;99.90
38973;DHT22;25333;50.762;4.470;2023-10-19T02:33:49;15.10;99.90
38973;DHT22;25333;50.762;4.470;2023-10-19T02:36:27;15.10;99.90
38973;DHT22;25333;50.762;4.470;2023-10-19T02:38:57;15.00;99.90
38973;DHT22;25333;50.762;4.470;2023-10-19T02:41:27;15.00;99.90
38973;DHT22;25333;50.762;4.470;2023-10-19T02:43:53;15.00;99.90
38973;DHT22;25333;50.762;4.470;2023-10-19T02:46:33;14.90;99.90
38973;DHT22;25333;50.762;4.470;2023-10-19T02:49:03;14.90;99.90
38973;DHT22;25333;50.762;4.470;2023-10-19T02:51:32;14.90;99.90
38973;DHT22;25333;50.762;4.470;2023-10-19T02:53:58;14.90;99.90
38973;DHT22;25333;50.762;4.470;2023-10-19T02:56:27;14.80;99.90
38973;DHT22;25333;50.762;4.470;2023-10-19T02:58:55;14.90;99.90
38973;DHT22;25333;50.762;4.470;2023-10-19T03:01:27;14.80;99.90
38973;DHT22;25333;50.762;4.470;2023-10-19T03:03:57;14.80;99.90
38973;DHT22;25333;50.762;4.470;2023-10-19T03:06:27;14.80;99.90
38973;DHT22;25333;50.762;4.470;2023-10-19T03:09:03;14.80;99.90
38973;DHT22;25333;50.762;4.470;2023-10-19T03:11:52;14.80;99.90
38973;DHT22;25333;50.762;4.470;2023-10-19T03:14:18;14.80;99.90
38973;DHT22;25333;50.762;4.470;2023-10-19T03:16:44;14.90;99.90
38973;DHT22;25333;50.762;4.470;2023-10-19T03:19:11;14.90;99.90
38973;DHT22;25333;50.762;4.470;2023-10-19T03:21:38;15.00;99.90
38973;DHT22;25333;50.762;4.470;2023-10-19T03:24:11;15.00;99.90
38973;DHT22;25333;50.762;4.470;2023-10-19T03:27:09;15.00;99.90
38973;DHT22;25333;50.762;4.470;2023-10-19T03:29:47;15.10;99.90
38973;DHT22;25333;50.762;4.470;2023-10-19T03:32:18;15.10;99.90
38973;DHT22;25333;50.762;4.470;2023-10-19T03:34:47;15.10;99.90
38973;DHT22;25333;50.762;4.470;2023-10-19T03:37:14;15.10;99.90
38973;DHT22;25333;50.762;4.470;2023-10-19T03:39:41;15.10;99.90
38973;DHT22;25333;50.762;4.470;2023-10-19T03:42:06;15.10;99.90
38973;DHT22;25333;50.762;4.470;2023-10-19T03:44:33;15.10;99.90
38973;DHT22;25333;50.762;4.470;2023-10-19T03:47:16;15.10;99.90
38973;DHT22;25333;50.762;4.470;2023-10-19T03:49:47;15.10;99.90
38973;DHT22;25333;50.762;4.470;2023-10-19T03:52:14;15.10;99.90
38973;DHT22;25333;50.762;4.470;2023-10-19T03:54:40;15.10;99.90
38973;DHT22;25333;50.762;4.470;2023-10-19T03:57:11;15.10;99.90
38973;DHT22;25333;50.762;4.470;2023-10-19T03:59:40;15.20;99.90
38973;DHT22;25333;50.762;4.470;2023-10-19T04:02:09;15.20;99.90
38973;DHT22;25333;50.762;4.470;2023-10-19T04:04:38;15.20;99.90
38973;DHT22;25333;50.762;4.470;2023-10-19T04:07:05;15.20;99.90
38973;DHT22;25333;50.762;4.470;2023-10-19T04:09:37;15.20;99.90
38973;DHT22;25333;50.762;4.470;2023-10-19T04:12:23;15.20;99.90
38973;DHT22;25333;50.762;4.470;2023-10-19T04:14:48;15.10;99.90
38973;DHT22;25333;50.762;4.470;2023-10-19T04:17:14;15.10;99.90
38973;DHT22;25333;50.762;4.470;2023-10-19T04:19:40;15.20;99.90
38973;DHT22;25333;50.762;4.470;2023-10-19T04:22:06;15.20;99.90
38973;DHT22;25333;50.762;4.470;2023-10-19T04:24:31;15.20;99.90
38973;DHT22;25333;50.762;4.470;2023-10-19T04:26:59;15.20;99.90
38973;DHT22;25333;50.762;4.470;2023-10-19T04:29:26;15.10;99.90
38973;DHT22;25333;50.762;4.470;2023-10-19T04:31:54;15.10;99.90
38973;DHT22;25333;50.762;4.470;2023-10-19T04:34:21;15.20;99.90
38973;DHT22;25333;50.762;4.470;2023-10-19T04:36:50;15.20;99.90
38973;DHT22;25333;50.762;4.470;2023-10-19T04:39:16;15.20;99.90
38973;DHT22;25333;50.762;4.470;2023-10-19T04:41:45;15.30;99.90
38973;DHT22;25333;50.762;4.470;2023-10-19T04:44:11;15.30;99.90
38973;DHT22;25333;50.762;4.470;2023-10-19T04:46:37;15.30;99.90
38973;DHT22;25333;50.762;4.470;2023-10-19T04:49:03;15.30;99.90
38973;DHT22;25333;50.762;4.470;2023-10-19T04:51:29;15.30;99.90
38973;DHT22;25333;50.762;4.470;2023-10-19T04:53:56;15.30;99.90
38973;DHT22;25333;50.762;4.470;2023-10-19T04:56:21;15.30;99.90
38973;DHT22;25333;50.762;4.470;2023-10-19T04:58:48;15.30;99.90
38973;DHT22;25333;50.762;4.470;2023-10-19T05:01:14;15.40;99.90
38973;DHT22;25333;50.762;4.470;2023-10-19T05:03:43;15.40;99.90
38973;DHT22;25333;50.762;4.470;2023-10-19T05:06:09;15.40;99.90
38973;DHT22;25333;50.762;4.470;2023-10-19T05:08:35;15.40;99.90
38973;DHT22;25333;50.762;4.470;2023-10-19T05:11:02;15.40;99.90
38973;DHT22;25333;50.762;4.470;2023-10-19T05:13:30;15.40;99.90
38973;DHT22;25333;50.762;4.470;2023-10-19T05:15:56;15.40;99.90
38973;DHT22;25333;50.762;4.470;2023-10-19T05:18:24;15.50;99.90
38973;DHT22;25333;50.762;4.470;2023-10-19T05:20:54;15.50;99.90
38973;DHT22;25333;50.762;4.470;2023-10-19T05:23:26;15.50;99.90
38973;DHT22;25333;50.762;4.470;2023-10-19T05:25:59;15.60;99.90
38973;DHT22;25333;50.762;4.470;2023-10-19T05:28:24;15.60;99.90
38973;DHT22;25333;50.762;4.470;2023-10-19T05:30:51;15.60;99.90
38973;DHT22;25333;50.762;4.470;2023-10-19T05:33:17;15.60;99.90
38973;DHT22;25333;50.762;4.470;2023-10-19T05:35:49;15.60;99.90
38973;DHT22;25333;50.762;4.470;2023-10-19T05:38:18;15.50;99.90
38973;DHT22;25333;50.762;4.470;2023-10-19T05:40:50;15.50;99.90
38973;DHT22;25333;50.762;4.470;2023-10-19T05:43:19;15.50;99.90
38973;DHT22;25333;50.762;4.470;2023-10-19T05:45:45;15.50;99.90
38973;DHT22;25333;50.762;4.470;2023-10-19T05:48:14;15.40;99.90
38973;DHT22;25333;50.762;4.470;2023-10-19T05:50:41;15.40;99.90
38973;DHT22;25333;50.762;4.470;2023-10-19T05:53:08;15.50;99.90
38973;DHT22;25333;50.762;4.470;2023-10-19T05:55:34;15.40;99.90
38973;DHT22;25333;50.762;4.470;2023-10-19T05:58:01;15.40;99.90
38973;DHT22;25333;50.762;4.470;2023-10-19T06:00:30;15.30;99.90
38973;DHT22;25333;50.762;4.470;2023-10-19T06:02:56;15.40;99.90
38973;DHT22;25333;50.762;4.470;2023-10-19T06:05:23;15.40;99.90
38973;DHT22;25333;50.762;4.470;2023-10-19T06:07:49;15.30;99.90
38973;DHT22;25333;50.762;4.470;2023-10-19T06:10:19;15.30;99.90
38973;DHT22;25333;50.762;4.470;2023-10-19T06:12:47;15.30;99.90
38973;DHT22;25333;50.762;4.470;2023-10-19T06:15:14;15.30;99.90
38973;DHT22;25333;50.762;4.470;2023-10-19T06:17:43;15.40;99.90
38973;DHT22;25333;50.762;4.470;2023-10-19T06:20:10;15.40;99.90
38973;DHT22;25333;50.762;4.470;2023-10-19T06:22:52;15.40;99.90
38973;DHT22;25333;50.762;4.470;2023-10-19T06:25:22;15.40;99.90
38973;DHT22;25333;50.762;4.470;2023-10-19T06:27:48;15.40;99.90
38973;DHT22;25333;50.762;4.470;2023-10-19T06:30:15;15.40;99.90
38973;DHT22;25333;50.762;4.470;2023-10-19T06:32:49;15.50;99.90
38973;DHT22;25333;50.762;4.470;2023-10-19T06:35:16;15.50;99.90
38973;DHT22;25333;50.762;4.470;2023-10-19T06:37:43;15.50;99.90
38973;DHT22;25333;50.762;4.470;2023-10-19T06:40:09;15.50;99.90
38973;DHT22;25333;50.762;4.470;2023-10-19T06:42:37;15.50;99.90
38973;DHT22;25333;50.762;4.470;2023-10-19T06:45:03;15.40;99.90
38973;DHT22;25333;50.762;4.470;2023-10-19T06:47:29;15.40;99.90
38973;DHT22;25333;50.762;4.470;2023-10-19T06:49:55;15.40;99.90
38973;DHT22;25333;50.762;4.470;2023-10-19T06:52:22;15.40;99.90
38973;DHT22;25333;50.762;4.470;2023-10-19T06:54:48;15.30;99.90
38973;DHT22;25333;50.762;4.470;2023-10-19T06:57:14;15.30;99.90
38973;DHT22;25333;50.762;4.470;2023-10-19T06:59:40;15.30;99.90
38973;DHT22;25333;50.762;4.470;2023-10-19T07:02:05;15.30;99.90
38973;DHT22;25333;50.762;4.470;2023-10-19T07:04:33;15.30;99.90
38973;DHT22;25333;50.762;4.470;2023-10-19T07:06:59;15.30;99.90
38973;DHT22;25333;50.762;4.470;2023-10-19T07:09:26;15.30;99.90
38973;DHT22;25333;50.762;4.470;2023-10-19T07:11:51;15.40;99.90
38973;DHT22;25333;50.762;4.470;2023-10-19T07:14:20;15.40;99.90
38973;DHT22;25333;50.762;4.470;2023-10-19T07:16:48;15.40;99.90
38973;DHT22;25333;50.762;4.470;2023-10-19T07:19:15;15.40;99.90
38973;DHT22;25333;50.762;4.470;2023-10-19T07:21:40;15.40;99.90
38973;DHT22;25333;50.762;4.470;2023-10-19T07:24:08;15.40;99.90
38973;DHT22;25333;50.762;4.470;2023-10-19T07:26:36;15.40;99.90
38973;DHT22;25333;50.762;4.470;2023-10-19T07:29:16;15.30;99.90
38973;DHT22;25333;50.762;4.470;2023-10-19T07:31:42;15.40;99.90
38973;DHT22;25333;50.762;4.470;2023-10-19T07:34:08;15.30;99.90
38973;DHT22;25333;50.762;4.470;2023-10-19T07:36:38;15.30;99.90
38973;DHT22;25333;50.762;4.470;2023-10-19T07:39:04;15.30;99.90
38973;DHT22;25333;50.762;4.470;2023-10-19T07:41:30;15.30;99.90
38973;DHT22;25333;50.762;4.470;2023-10-19T07:44:01;15.30;99.90
38973;DHT22;25333;50.762;4.470;2023-10-19T07:46:27;15.40;99.90
38973;DHT22;25333;50.762;4.470;2023-10-19T07:48:54;15.40;99.90
38973;DHT22;25333;50.762;4.470;2023-10-19T07:51:20;15.60;99.90
38973;DHT22;25333;50.762;4.470;2023-10-19T07:53:45;15.60;99.90
38973;DHT22;25333;50.762;4.470;2023-10-19T07:56:11;15.70;99.90
38973;DHT22;25333;50.762;4.470;2023-10-19T07:58:37;15.70;99.90
38973;DHT22;25333;50.762;4.470;2023-10-19T08:01:02;15.80;99.90
38973;DHT22;25333;50.762;4.470;2023-10-19T08:03:28;15.80;99.90
38973;DHT22;25333;50.762;4.470;2023-10-19T08:05:54;15.80;99.90
38973;DHT22;25333;50.762;4.470;2023-10-19T08:08:19;15.90;99.90
38973;DHT22;25333;50.762;4.470;2023-10-19T08:10:45;15.90;99.90
38973;DHT22;25333;50.762;4.470;2023-10-19T08:13:12;15.90;99.90
38973;DHT22;25333;50.762;4.470;2023-10-19T08:15:38;15.90;99.90
38973;DHT22;25333;50.762;4.470;2023-10-19T08:18:04;16.00;99.90
38973;DHT22;25333;50.762;4.470;2023-10-19T08:20:31;16.00;99.90
38973;DHT22;25333;50.762;4.470;2023-10-19T08:22:57;16.00;99.90
38973;DHT22;25333;50.762;4.470;2023-10-19T08:25:23;16.10;99.90
38973;DHT22;25333;50.762;4.470;2023-10-19T08:27:49;16.00;99.90
38973;DHT22;25333;50.762;4.470;2023-10-19T08:30:21;16.10;99.90
38973;DHT22;25333;50.762;4.470;2023-10-19T08:32:47;16.10;99.90
38973;DHT22;25333;50.762;4.470;2023-10-19T08:35:18;16.10;99.90
38973;DHT22;25333;50.762;4.470;2023-10-19T08:37:46;16.20;99.90
38973;DHT22;25333;50.762;4.470;2023-10-19T08:40:12;16.30;99.90
38973;DHT22;25333;50.762;4.470;2023-10-19T08:42:45;16.40;99.90
38973;DHT22;25333;50.762;4.470;2023-10-19T08:45:11;16.40;99.90
38973;DHT22;25333;50.762;4.470;2023-10-19T08:47:56;16.30;99.90
38973;DHT22;25333;50.762;4.470;2023-10-19T08:50:27;16.30;99.90
38973;DHT22;25333;50.762;4.470;2023-10-19T08:52:55;16.30;99.90
38973;DHT22;25333;50.762;4.470;2023-10-19T08:55:21;16.20;99.90
38973;DHT22;25333;50.762;4.470;2023-10-19T08:57:49;16.30;99.90
38973;DHT22;25333;50.762;4.470;2023-10-19T09:00:15;16.30;99.90
38973;DHT22;25333;50.762;4.470;2023-10-19T09:02:44;16.30;99.90
38973;DHT22;25333;50.762;4.470;2023-10-19T09:05:09;16.30;99.90
38973;DHT22;25333;50.762;4.470;2023-10-19T09:07:46;16.20;99.90
38973;DHT22;25333;50.762;4.470;2023-10-19T09:10:16;16.30;99.90
38973;DHT22;25333;50.762;4.470;2023-10-19T09:12:42;16.30;99.90
38973;DHT22;25333;50.762;4.470;2023-10-19T09:15:29;16.40;99.90
38973;DHT22;25333;50.762;4.470;2023-10-19T09:18:19;16.40;99.90
38973;DHT22;25333;50.762;4.470;2023-10-19T09:20:46;16.50;99.90
38973;DHT22;25333;50.762;4.470;2023-10-19T09:23:32;16.50;99.90
38973;DHT22;25333;50.762;4.470;2023-10-19T09:25:59;16.50;99.90
38973;DHT22;25333;50.762;4.470;2023-10-19T09:28:28;16.50;99.90
38973;DHT22;25333;50.762;4.470;2023-10-19T09:30:55;16.50;99.90
38973;DHT22;25333;50.762;4.470;2023-10-19T09:33:22;16.60;99.90
38973;DHT22;25333;50.762;4.470;2023-10-19T09:35:50;16.60;99.90
38973;DHT22;25333;50.762;4.470;2023-10-19T09:38:18;16.60;99.90
38973;DHT22;25333;50.762;4.470;2023-10-19T09:40:51;16.70;99.90
38973;DHT22;25333;50.762;4.470;2023-10-19T09:46:01;16.80;99.90
38973;DHT22;25333;50.762;4.470;2023-10-19T09:48:27;16.90;99.90
38973;DHT22;25333;50.762;4.470;2023-10-19T09:50:55;16.90;99.90
38973;DHT22;25333;50.762;4.470;2023-10-19T09:53:27;16.90;99.90
38973;DHT22;25333;50.762;4.470;2023-10-19T09:55:58;16.80;99.90
38973;DHT22;25333;50.762;4.470;2023-10-19T09:58:27;16.90;99.90
38973;DHT22;25333;50.762;4.470;2023-10-19T10:00:57;17.00;99.90
38973;DHT22;25333;50.762;4.470;2023-10-19T10:03:50;17.10;99.90
38973;DHT22;25333;50.762;4.470;2023-10-19T10:09:13;17.20;99.90
38973;DHT22;25333;50.762;4.470;2023-10-19T10:11:52;17.20;99.90
38973;DHT22;25333;50.762;4.470;2023-10-19T10:14:25;17.30;99.90
38973;DHT22;25333;50.762;4.470;2023-10-19T10:17:03;17.30;99.90
38973;DHT22;25333;50.762;4.470;2023-10-19T10:19:30;17.40;99.90
38973;DHT22;25333;50.762;4.470;2023-10-19T10:22:11;17.50;99.90
38973;DHT22;25333;50.762;4.470;2023-10-19T10:24:43;17.50;99.90
38973;DHT22;25333;50.762;4.470;2023-10-19T10:27:10;17.50;99.90
38973;DHT22;25333;50.762;4.470;2023-10-19T10:29:57;17.50;99.90
38973;DHT22;25333;50.762;4.470;2023-10-19T10:35:09;17.60;99.90
38973;DHT22;25333;50.762;4.470;2023-10-19T10:37:38;17.60;99.90
38973;DHT22;25333;50.762;4.470;2023-10-19T10:40:06;17.60;99.90
38973;DHT22;25333;50.762;4.470;2023-10-19T10:45:05;17.70;99.90
38973;DHT22;25333;50.762;4.470;2023-10-19T10:47:30;17.70;99.90
38973;DHT22;25333;50.762;4.470;2023-10-19T10:50:00;17.70;99.90
38973;DHT22;25333;50.762;4.470;2023-10-19T10:52:33;17.70;99.90
38973;DHT22;25333;50.762;4.470;2023-10-19T10:55:09;17.70;99.90
38973;DHT22;25333;50.762;4.470;2023-10-19T10:57:42;17.60;99.90
38973;DHT22;25333;50.762;4.470;2023-10-19T11:00:13;17.60;99.90
38973;DHT22;25333;50.762;4.470;2023-10-19T11:02:44;17.60;99.90
38973;DHT22;25333;50.762;4.470;2023-10-19T11:05:12;17.60;99.90
38973;DHT22;25333;50.762;4.470;2023-10-19T11:07:39;17.60;99.90
38973;DHT22;25333;50.762;4.470;2023-10-19T11:10:05;17.60;99.90
38973;DHT22;25333;50.762;4.470;2023-10-19T11:12:32;17.50;99.90
38973;DHT22;25333;50.762;4.470;2023-10-19T11:14:59;17.50;99.90
38973;DHT22;25333;50.762;4.470;2023-10-19T11:17:26;17.50;99.90
38973;DHT22;25333;50.762;4.470;2023-10-19T11:19:56;17.50;99.90
38973;DHT22;25333;50.762;4.470;2023-10-19T11:22:23;17.50;99.90
38973;DHT22;25333;50.762;4.470;2023-10-19T11:24:53;17.60;99.90
38973;DHT22;25333;50.762;4.470;2023-10-19T11:27:27;17.60;99.90
38973;DHT22;25333;50.762;4.470;2023-10-19T11:29:57;17.60;99.90
38973;DHT22;25333;50.762;4.470;2023-10-19T11:32:24;17.60;99.90
38973;DHT22;25333;50.762;4.470;2023-10-19T11:34:56;17.70;99.90
38973;DHT22;25333;50.762;4.470;2023-10-19T11:37:22;17.60;99.90
38973;DHT22;25333;50.762;4.470;2023-10-19T11:39:48;17.60;99.90
38973;DHT22;25333;50.762;4.470;2023-10-19T11:42:16;17.60;99.90
38973;DHT22;25333;50.762;4.470;2023-10-19T11:44:43;17.70;99.90
38973;DHT22;25333;50.762;4.470;2023-10-19T11:47:10;17.60;99.90
38973;DHT22;25333;50.762;4.470;2023-10-19T11:49:35;17.60;99.90
38973;DHT22;25333;50.762;4.470;2023-10-19T11:52:07;17.50;99.90
38973;DHT22;25333;50.762;4.470;2023-10-19T11:54:33;17.60;99.90
38973;DHT22;25333;50.762;4.470;2023-10-19T11:56:59;17.60;99.90
38973;DHT22;25333;50.762;4.470;2023-10-19T11:59:25;17.50;99.90
38973;DHT22;25333;50.762;4.470;2023-10-19T12:01:52;17.50;99.90
38973;DHT22;25333;50.762;4.470;2023-10-19T12:04:17;17.50;99.90
38973;DHT22;25333;50.762;4.470;2023-10-19T12:06:43;17.50;99.90
38973;DHT22;25333;50.762;4.470;2023-10-19T12:09:12;17.40;99.90
38973;DHT22;25333;50.762;4.470;2023-10-19T12:11:41;17.40;99.90
38973;DHT22;25333;50.762;4.470;2023-10-19T12:14:06;17.30;99.90
38973;DHT22;25333;50.762;4.470;2023-10-19T12:16:37;17.30;99.90
38973;DHT22;25333;50.762;4.470;2023-10-19T12:19:05;17.20;99.90
38973;DHT22;25333;50.762;4.470;2023-10-19T12:21:30;17.20;99.90
38973;DHT22;25333;50.762;4.470;2023-10-19T12:23:59;17.20;99.90
38973;DHT22;25333;50.762;4.470;2023-10-19T12:26:26;17.20;99.90
38973;DHT22;25333;50.762;4.470;2023-10-19T12:28:52;17.10;99.90
38973;DHT22;25333;50.762;4.470;2023-10-19T12:31:18;17.10;99.90
38973;DHT22;25333;50.762;4.470;2023-10-19T12:33:44;17.10;99.90
38973;DHT22;25333;50.762;4.470;2023-10-19T12:36:10;17.10;99.90
38973;DHT22;25333;50.762;4.470;2023-10-19T12:38:55;17.10;99.90
38973;DHT22;25333;50.762;4.470;2023-10-19T12:41:21;17.10;99.90
38973;DHT22;25333;50.762;4.470;2023-10-19T12:43:47;17.20;99.90
38973;DHT22;25333;50.762;4.470;2023-10-19T12:46:13;17.20;99.90
38973;DHT22;25333;50.762;4.470;2023-10-19T12:48:45;17.30;99.90
38973;DHT22;25333;50.762;4.470;2023-10-19T12:51:14;17.40;99.90
38973;DHT22;25333;50.762;4.470;2023-10-19T12:53:40;17.50;99.90
38973;DHT22;25333;50.762;4.470;2023-10-19T12:56:06;17.60;99.90
38973;DHT22;25333;50.762;4.470;2023-10-19T12:58:33;17.60;99.90
38973;DHT22;25333;50.762;4.470;2023-10-19T13:00:59;17.70;99.90
38973;DHT22;25333;50.762;4.470;2023-10-19T13:03:24;17.70;99.90
38973;DHT22;25333;50.762;4.470;2023-10-19T13:05:56;17.80;99.90
38973;DHT22;25333;50.762;4.470;2023-10-19T13:08:23;17.80;99.90
38973;DHT22;25333;50.762;4.470;2023-10-19T13:10:52;17.80;99.90
38973;DHT22;25333;50.762;4.470;2023-10-19T13:13:18;17.70;99.90
38973;DHT22;25333;50.762;4.470;2023-10-19T13:15:45;17.70;99.90
38973;DHT22;25333;50.762;4.470;2023-10-19T13:18:13;17.70;99.90
38973;DHT22;25333;50.762;4.470;2023-10-19T13:20:45;17.60;99.90
38973;DHT22;25333;50.762;4.470;2023-10-19T13:23:11;17.70;99.90
38973;DHT22;25333;50.762;4.470;2023-10-19T13:25:38;17.70;99.90
38973;DHT22;25333;50.762;4.470;2023-10-19T13:28:08;17.80;99.90
38973;DHT22;25333;50.762;4.470;2023-10-19T13:30:39;17.80;99.90
38973;DHT22;25333;50.762;4.470;2023-10-19T13:33:05;17.80;99.90
38973;DHT22;25333;50.762;4.470;2023-10-19T13:35:32;17.80;99.90
38973;DHT22;25333;50.762;4.470;2023-10-19T13:37:59;17.80;99.90
38973;DHT22;25333;50.762;4.470;2023-10-19T13:40:27;17.80;99.90
38973;DHT22;25333;50.762;4.470;2023-10-19T13:42:56;17.80;99.90
38973;DHT22;25333;50.762;4.470;2023-10-19T13:45:21;17.80;99.90
38973;DHT22;25333;50.762;4.470;2023-10-19T13:47:47;17.70;99.90
38973;DHT22;25333;50.762;4.470;2023-10-19T13:50:13;17.70;99.90
38973;DHT22;25333;50.762;4.470;2023-10-19T13:52:38;17.70;99.90
38973;DHT22;25333;50.762;4.470;2023-10-19T13:55:05;17.70;99.90
38973;DHT22;25333;50.762;4.470;2023-10-19T13:57:33;17.70;99.90
38973;DHT22;25333;50.762;4.470;2023-10-19T13:59:59;17.70;99.90
38973;DHT22;25333;50.762;4.470;2023-10-19T14:02:26;17.70;99.90
38973;DHT22;25333;50.762;4.470;2023-10-19T14:04:52;17.70;99.90
38973;DHT22;25333;50.762;4.470;2023-10-19T14:07:18;17.60;99.90
38973;DHT22;25333;50.762;4.470;2023-10-19T14:09:45;17.60;99.90
38973;DHT22;25333;50.762;4.470;2023-10-19T14:12:11;17.70;99.90
38973;DHT22;25333;50.762;4.470;2023-10-19T14:14:36;17.70;99.90
38973;DHT22;25333;50.762;4.470;2023-10-19T14:17:02;17.70;99.90
38973;DHT22;25333;50.762;4.470;2023-10-19T14:19:28;17.70;99.90
38973;DHT22;25333;50.762;4.470;2023-10-19T14:21:54;17.70;99.90
38973;DHT22;25333;50.762;4.470;2023-10-19T14:24:19;17.80;99.90
38973;DHT22;25333;50.762;4.470;2023-10-19T14:26:46;17.80;99.90
38973;DHT22;25333;50.762;4.470;2023-10-19T14:29:12;17.80;99.90
38973;DHT22;25333;50.762;4.470;2023-10-19T14:31:39;17.90;99.90
38973;DHT22;25333;50.762;4.470;2023-10-19T14:34:04;18.00;99.90
38973;DHT22;25333;50.762;4.470;2023-10-19T14:36:30;18.10;99.90
38973;DHT22;25333;50.762;4.470;2023-10-19T14:38:56;18.20;99.90
38973;DHT22;25333;50.762;4.470;2023-10-19T14:41:22;18.20;99.90
38973;DHT22;25333;50.762;4.470;2023-10-19T14:43:48;18.20;99.90
38973;DHT22;25333;50.762;4.470;2023-10-19T14:46:13;18.20;99.90
38973;DHT22;25333;50.762;4.470;2023-10-19T14:48:39;18.10;99.90
38973;DHT22;25333;50.762;4.470;2023-10-19T14:51:05;18.10;99.90
38973;DHT22;25333;50.762;4.470;2023-10-19T14:53:33;18.00;99.90
38973;DHT22;25333;50.762;4.470;2023-10-19T14:55:59;17.90;99.90
38973;DHT22;25333;50.762;4.470;2023-10-19T14:58:26;18.00;99.90
38973;DHT22;25333;50.762;4.470;2023-10-19T15:00:52;18.00;99.90
38973;DHT22;25333;50.762;4.470;2023-10-19T15:03:21;18.00;99.90
38973;DHT22;25333;50.762;4.470;2023-10-19T15:05:52;18.00;99.90
38973;DHT22;25333;50.762;4.470;2023-10-19T15:08:18;18.00;99.90
38973;DHT22;25333;50.762;4.470;2023-10-19T15:10:45;18.10;99.90
38973;DHT22;25333;50.762;4.470;2023-10-19T15:13:11;18.10;99.90
38973;DHT22;25333;50.762;4.470;2023-10-19T15:15:36;18.10;99.90
38973;DHT22;25333;50.762;4.470;2023-10-19T15:18:02;18.10;99.90
38973;DHT22;25333;50.762;4.470;2023-10-19T15:20:29;18.00;99.90
38973;DHT22;25333;50.762;4.470;2023-10-19T15:22:56;18.00;99.90
38973;DHT22;25333;50.762;4.470;2023-10-19T15:25:22;18.00;99.90
38973;DHT22;25333;50.762;4.470;2023-10-19T15:27:50;18.00;99.90
38973;DHT22;25333;50.762;4.470;2023-10-19T15:30:17;18.00;99.90
38973;DHT22;25333;50.762;4.470;2023-10-19T15:32:49;17.90;99.90
38973;DHT22;25333;50.762;4.470;2023-10-19T15:35:16;18.00;99.90
38973;DHT22;25333;50.762;4.470;2023-10-19T15:37:46;17.90;99.90
38973;DHT22;25333;50.762;4.470;2023-10-19T15:40:16;17.90;99.90
38973;DHT22;25333;50.762;4.470;2023-10-19T15:42:42;17.80;99.90
38973;DHT22;25333;50.762;4.470;2023-10-19T15:45:12;17.80;99.90
38973;DHT22;25333;50.762;4.470;2023-10-19T15:47:39;17.80;99.90
38973;DHT22;25333;50.762;4.470;2023-10-19T15:50:06;17.80;99.90
38973;DHT22;25333;50.762;4.470;2023-10-19T15:52:34;17.90;99.90